This is the latest recevied weather packets stored in our database for station/object XE1E-15. If no packets are shown the sender has not sent any weather packets the latest 10 day(s).
| Time | Temp. | Humidity | Pressure | Rain* | Wind** | Luminosity | Snow |
|---|---|---|---|---|---|---|---|
| 1777825965 | 29.44° C | 38% | 1026.2 hPa | - | - | - | - |
| 1777825005 | 28.33° C | 40% | 1026.5 hPa | - | - | - | - |
| 1777824045 | 30.56° C | 39% | 1026.6 hPa | - | - | - | - |
| 1777823085 | 28.89° C | 41% | 1026.5 hPa | - | - | - | - |
| 1777822125 | 28.89° C | 43% | 1026.5 hPa | - | - | - | - |
| 1777821165 | 27.78° C | 45% | 1026.5 hPa | - | - | - | - |
| 1777819431 | 27.22° C | 45% | 1026.4 hPa | - | - | - | - |
| 1777818470 | 27.22° C | 47% | 1026.1 hPa | - | - | - | - |
| 1777817510 | 26.67° C | 47% | 1025.9 hPa | - | - | - | - |
| 1777816550 | 25.56° C | 49% | 1025.7 hPa | - | - | - | - |
| 1777815589 | 23.33° C | 55% | 1025.8 hPa | - | - | - | - |
| 1777815113 | 25.56° C | 50% | 1025.7 hPa | - | - | - | - |
| 1777814153 | 24.44° C | 52% | 1025.6 hPa | - | - | - | - |
| 1777813193 | 25.56° C | 51% | 1025.4 hPa | - | - | - | - |
| 1777812233 | 23.89° C | 55% | 1025 hPa | - | - | - | - |
| 1777811272 | 23.33° C | 57% | 1024.7 hPa | - | - | - | - |
| 1777810312 | 23.33° C | 58% | 1024.7 hPa | - | - | - | - |
| 1777809352 | 23.33° C | 58% | 1024.5 hPa | - | - | - | - |
| 1777808392 | 23.33° C | 56% | 1024.5 hPa | - | - | - | - |
| 1777807432 | 22.78° C | 59% | 1024.6 hPa | - | - | - | - |
| 1777806472 | 24.44° C | 53% | 1024.4 hPa | - | - | - | - |
| 1777805512 | 23.89° C | 55% | 1024.1 hPa | - | - | - | - |
| 1777804552 | 24.44° C | 53% | 1024.1 hPa | - | - | - | - |
| 1777803591 | 25° C | 52% | 1024 hPa | - | - | - | - |
| 1777802631 | 23.89° C | 54% | 1024 hPa | - | - | - | - |
* Rain since midnight (hover to see other rain measurements)
** Current wind speed in m/s (hover to see current wind gust speed)